Time,TemperatureF,DewpointF,PressureIn,WindDirection,WindDirectionDegrees,WindSpeedMPH,WindSpeedGustMPH,Humidity,HourlyPrecipIn,Conditions,Clouds,dailyrainin,SoftwareType,DateUTC
2013-03-19 00:00:00,31.8,28.4,29.77,SW,232,0.0,0.0,87,0.00,,---,0.04,VWS V14.01,2013-03-19 04:00:00,
2013-03-19 00:05:00,32.0,28.6,29.77,SW,232,0.0,0.0,87,0.00,,---,0.00,VWS V14.01,2013-03-19 04:05:00,
2013-03-19 00:11:00,32.0,28.6,29.77,SW,232,0.0,0.0,87,0.00,,---,0.00,VWS V14.01,2013-03-19 04:11:00,
2013-03-19 00:16:00,32.0,28.6,29.77,SW,232,0.0,0.0,87,0.00,,---,0.00,VWS V14.01,2013-03-19 04:16:00,
2013-03-19 00:21:00,32.0,28.6,29.77,SW,232,0.0,0.0,87,0.00,,---,0.00,VWS V14.01,2013-03-19 04:21:00,
2013-03-19 00:26:00,32.2,28.8,29.77,SW,232,0.0,0.0,87,0.00,,---,0.00,VWS V14.01,2013-03-19 04:26:00,
2013-03-19 00:31:00,32.0,28.6,29.77,SW,232,0.0,0.0,87,0.00,,---,0.00,VWS V14.01,2013-03-19 04:31:00,
2013-03-19 00:36:00,32.0,28.6,29.77,SW,232,0.0,0.0,87,0.00,,---,0.00,VWS V14.01,2013-03-19 04:36:00,
2013-03-19 00:41:00,32.0,28.6,29.77,SW,232,0.0,0.0,87,0.00,,---,0.00,VWS V14.01,2013-03-19 04:41:00,
2013-03-19 00:46:00,32.2,29.0,29.77,SW,232,0.0,0.0,88,0.00,,---,0.00,VWS V14.01,2013-03-19 04:46:00,
2013-03-19 00:51:00,32.2,29.0,29.77,SW,232,0.0,0.0,88,0.00,,---,0.00,VWS V14.01,2013-03-19 04:51:00,
2013-03-19 00:56:00,32.2,29.0,29.77,SW,232,0.0,0.0,88,0.00,,---,0.00,VWS V14.01,2013-03-19 04:56:00,
2013-03-19 01:01:00,32.2,29.0,29.77,SW,232,0.0,0.0,88,0.00,,---,0.00,VWS V14.01,2013-03-19 05:01:00,
2013-03-19 01:07:00,32.2,29.0,29.77,SW,232,0.0,0.0,88,0.00,,---,0.00,VWS V14.01,2013-03-19 05:07:00,
2013-03-19 01:12:00,32.2,29.0,29.77,SW,232,0.0,0.0,88,0.00,,---,0.00,VWS V14.01,2013-03-19 05:12:00,
2013-03-19 01:17:00,32.2,29.0,29.77,SW,232,0.0,0.0,88,0.00,,---,0.00,VWS V14.01,2013-03-19 05:17:00,
2013-03-19 01:22:00,32.2,29.0,29.77,SW,232,0.0,0.0,88,0.00,,---,0.00,VWS V14.01,2013-03-19 05:22:00,
2013-03-19 01:27:00,32.2,29.0,29.77,SW,232,0.0,0.0,88,0.00,,---,0.00,VWS V14.01,2013-03-19 05:27:00,
2013-03-19 01:32:00,32.2,29.0,29.77,SW,232,0.0,0.0,88,0.00,,---,0.00,VWS V14.01,2013-03-19 05:32:00,
2013-03-19 01:37:00,32.2,29.0,29.77,SW,232,0.0,0.0,88,0.00,,---,0.00,VWS V14.01,2013-03-19 05:37:00,
2013-03-19 01:42:00,32.2,29.0,29.77,SW,232,0.0,0.0,88,0.00,,---,0.00,VWS V14.01,2013-03-19 05:42:00,
2013-03-19 01:47:00,32.2,29.0,29.77,SW,232,0.0,0.0,88,0.00,,---,0.00,VWS V14.01,2013-03-19 05:47:00,
2013-03-19 01:52:00,32.4,29.2,29.77,SW,232,0.0,0.0,88,0.00,,---,0.00,VWS V14.01,2013-03-19 05:52:00,
2013-03-19 01:57:00,32.4,29.2,29.74,SW,232,0.0,0.0,88,0.00,,---,0.00,VWS V14.01,2013-03-19 05:57:00,
2013-03-19 02:02:00,32.4,29.2,29.74,SW,232,0.0,0.0,88,0.00,,---,0.00,VWS V14.01,2013-03-19 06:02:00,
2013-03-19 02:07:00,32.2,29.0,29.74,SW,232,0.0,0.0,88,0.00,,---,0.00,VWS V14.01,2013-03-19 06:07:00,
2013-03-19 02:12:00,32.2,29.0,29.74,SW,232,0.0,0.0,88,0.00,,---,0.00,VWS V14.01,2013-03-19 06:12:00,
2013-03-19 02:17:00,32.2,29.0,29.74,SW,232,0.0,0.0,88,0.00,,---,0.00,VWS V14.01,2013-03-19 06:17:00,
2013-03-19 02:22:00,32.2,29.0,29.74,SW,232,0.0,0.0,88,0.00,,---,0.00,VWS V14.01,2013-03-19 06:22:00,
2013-03-19 02:27:00,32.2,29.0,29.74,SW,232,0.0,0.0,88,0.00,,---,0.00,VWS V14.01,2013-03-19 06:27:00,
2013-03-19 02:32:00,32.2,29.0,29.74,SW,232,0.0,0.0,88,0.00,,---,0.00,VWS V14.01,2013-03-19 06:32:00,
2013-03-19 02:37:00,32.2,29.0,29.74,SW,232,0.0,0.0,88,0.00,,---,0.00,VWS V14.01,2013-03-19 06:37:00,
2013-03-19 02:42:00,32.2,29.0,29.74,SW,232,0.0,0.0,88,0.00,,---,0.00,VWS V14.01,2013-03-19 06:42:00,
2013-03-19 02:47:00,32.2,29.0,29.74,SW,232,0.0,0.0,88,0.00,,---,0.00,VWS V14.01,2013-03-19 06:47:00,
2013-03-19 02:52:00,32.2,29.0,29.74,SW,232,0.0,0.0,88,0.00,,---,0.00,VWS V14.01,2013-03-19 06:52:00,
2013-03-19 02:57:00,32.2,29.3,29.74,SW,232,0.0,0.0,89,0.00,,---,0.00,VWS V14.01,2013-03-19 06:57:00,
2013-03-19 03:02:00,32.2,29.3,29.74,SW,232,0.0,0.0,89,0.00,,---,0.00,VWS V14.01,2013-03-19 07:02:00,
2013-03-19 03:07:00,32.4,29.5,29.74,SW,232,0.0,0.0,89,0.00,,---,0.00,VWS V14.01,2013-03-19 07:07:00,
2013-03-19 03:12:00,32.4,29.5,29.74,SW,232,0.0,0.0,89,0.00,,---,0.00,VWS V14.01,2013-03-19 07:12:00,
2013-03-19 03:17:00,32.4,29.5,29.74,SW,232,0.0,0.0,89,0.00,,---,0.00,VWS V14.01,2013-03-19 07:17:00,
2013-03-19 03:22:00,32.4,29.5,29.74,SW,232,0.0,0.0,89,0.00,,---,0.00,VWS V14.01,2013-03-19 07:22:00,
2013-03-19 03:27:00,32.4,29.5,29.74,SW,232,0.0,0.0,89,0.00,,---,0.00,VWS V14.01,2013-03-19 07:27:00,
2013-03-19 03:32:00,32.4,29.5,29.74,SW,232,0.0,0.0,89,0.00,,---,0.00,VWS V14.01,2013-03-19 07:32:00,
2013-03-19 03:38:00,32.4,29.5,29.74,SW,232,0.0,0.0,89,0.00,,---,0.00,VWS V14.01,2013-03-19 07:38:00,
2013-03-19 03:43:00,32.4,29.5,29.71,SW,232,0.0,0.0,89,0.00,,---,0.00,VWS V14.01,2013-03-19 07:43:00,
2013-03-19 03:48:00,32.4,29.5,29.71,SW,232,0.0,0.0,89,0.00,,---,0.00,VWS V14.01,2013-03-19 07:48:00,
2013-03-19 03:53:00,32.4,29.5,29.71,SW,232,0.0,0.0,89,0.00,,---,0.00,VWS V14.01,2013-03-19 07:53:00,
2013-03-19 03:58:00,32.5,29.7,29.71,SW,232,0.0,0.0,89,0.00,,---,0.00,VWS V14.01,2013-03-19 07:58:00,
2013-03-19 04:03:00,32.5,29.7,29.71,SW,232,0.0,0.0,89,0.00,,---,0.00,VWS V14.01,2013-03-19 08:03:00,
2013-03-19 04:08:00,32.5,29.7,29.71,SW,232,0.0,0.0,89,0.00,,---,0.00,VWS V14.01,2013-03-19 08:08:00,
2013-03-19 04:13:00,32.5,29.7,29.71,SW,232,0.0,0.0,89,0.00,,---,0.00,VWS V14.01,2013-03-19 08:13:00,
2013-03-19 04:18:00,32.5,29.7,29.71,SW,232,0.0,0.0,89,0.00,,---,0.00,VWS V14.01,2013-03-19 08:18:00,
2013-03-19 04:23:00,32.5,29.7,29.71,SW,232,0.0,0.0,89,0.00,,---,0.00,VWS V14.01,2013-03-19 08:23:00,
2013-03-19 04:28:00,32.5,29.7,29.71,SW,232,0.0,0.0,89,0.00,,---,0.00,VWS V14.01,2013-03-19 08:28:00,
2013-03-19 04:33:00,32.5,29.7,29.71,SW,232,0.0,0.0,89,0.00,,---,0.00,VWS V14.01,2013-03-19 08:33:00,
2013-03-19 04:38:00,32.4,29.5,29.71,SW,232,0.0,0.0,89,0.00,,---,0.00,VWS V14.01,2013-03-19 08:38:00,
2013-03-19 04:43:00,32.5,29.7,29.71,SW,232,0.0,0.0,89,0.00,,---,0.00,VWS V14.01,2013-03-19 08:43:00,
2013-03-19 04:48:00,32.5,29.7,29.71,SW,232,0.0,0.0,89,0.00,,---,0.00,VWS V14.01,2013-03-19 08:48:00,
2013-03-19 04:53:00,32.5,29.7,29.71,SW,232,0.0,0.0,89,0.00,,---,0.00,VWS V14.01,2013-03-19 08:53:00,
2013-03-19 04:58:00,32.4,29.5,29.71,SW,232,0.0,0.0,89,0.00,,---,0.00,VWS V14.01,2013-03-19 08:58:00,
2013-03-19 05:03:00,32.5,29.7,29.71,SW,232,0.0,0.0,89,0.00,,---,0.00,VWS V14.01,2013-03-19 09:03:00,
2013-03-19 05:09:00,32.5,29.7,29.71,SW,232,0.0,0.0,89,0.00,,---,0.00,VWS V14.01,2013-03-19 09:09:00,
2013-03-19 05:14:00,32.9,30.3,29.71,SW,232,0.0,0.0,90,0.00,,---,0.00,VWS V14.01,2013-03-19 09:14:00,
2013-03-19 05:19:00,32.9,30.3,29.71,SW,232,0.0,0.0,90,0.00,,---,0.00,VWS V14.01,2013-03-19 09:19:00,
2013-03-19 05:24:00,32.7,29.8,29.71,SW,232,0.0,0.0,89,0.00,,---,0.00,VWS V14.01,2013-03-19 09:24:00,
2013-03-19 05:47:00,32.5,29.9,29.71,SW,232,0.0,0.0,90,0.00,,---,0.00,VWS V14.01,2013-03-19 09:47:00,
2013-03-19 05:52:00,32.5,29.9,29.71,SW,232,0.0,0.0,90,0.00,,---,0.00,VWS V14.01,2013-03-19 09:52:00,
2013-03-19 05:58:00,32.5,29.9,29.74,SW,232,0.0,0.0,90,0.00,,---,0.00,VWS V14.01,2013-03-19 09:58:00,
2013-03-19 06:03:00,32.5,29.9,29.74,SW,232,0.0,0.0,90,0.00,,---,0.00,VWS V14.01,2013-03-19 10:03:00,
2013-03-19 06:08:00,32.5,29.9,29.74,SW,232,0.0,0.0,90,0.00,,---,0.00,VWS V14.01,2013-03-19 10:08:00,
2013-03-19 06:13:00,32.5,29.9,29.74,SW,232,0.0,0.0,90,0.00,,---,0.00,VWS V14.01,2013-03-19 10:13:00,
2013-03-19 06:18:00,32.7,30.1,29.74,SW,230,0.0,0.0,90,0.00,,---,0.00,VWS V14.01,2013-03-19 10:18:00,
2013-03-19 06:23:00,33.1,30.5,29.74,SW,219,0.0,0.0,90,0.00,,---,0.00,VWS V14.01,2013-03-19 10:23:00,
2013-03-19 06:28:00,33.3,30.9,29.74,SW,220,0.0,0.0,91,0.00,,---,0.00,VWS V14.01,2013-03-19 10:28:00,
2013-03-19 06:33:00,33.3,30.9,29.74,SW,221,0.0,0.0,91,0.00,,---,0.00,VWS V14.01,2013-03-19 10:33:00,
2013-03-19 06:38:00,33.3,30.9,29.74,SW,224,0.0,0.0,91,0.00,,---,0.00,VWS V14.01,2013-03-19 10:38:00,
2013-03-19 06:43:00,33.1,30.7,29.74,SW,224,0.0,0.0,91,0.00,,---,0.00,VWS V14.01,2013-03-19 10:43:00,
2013-03-19 06:48:00,33.1,30.7,29.74,SSW,210,0.0,0.0,91,0.00,,---,0.00,VWS V14.01,2013-03-19 10:48:00,
2013-03-19 06:53:00,33.1,30.7,29.74,SSW,203,0.0,0.0,91,0.00,,---,0.00,VWS V14.01,2013-03-19 10:53:00,
2013-03-19 06:58:00,33.1,30.7,29.77,SSW,197,0.0,0.0,91,0.00,,---,0.00,VWS V14.01,2013-03-19 10:58:00,
2013-03-19 07:03:00,33.1,30.7,29.77,SSW,197,0.0,0.0,91,0.00,,---,0.00,VWS V14.01,2013-03-19 11:03:00,
2013-03-19 07:08:00,33.6,31.5,29.77,East,96,0.0,0.0,92,0.00,,---,0.00,VWS V14.01,2013-03-19 11:08:00,
2013-03-19 07:13:00,34.0,31.9,29.77,East,96,0.0,0.0,92,0.00,,---,0.00,VWS V14.01,2013-03-19 11:13:00,
2013-03-19 07:18:00,34.5,32.4,29.77,East,96,0.0,0.0,92,0.00,,---,0.00,VWS V14.01,2013-03-19 11:18:00,
2013-03-19 07:23:00,34.5,32.4,29.77,ENE,59,0.0,0.0,92,0.00,,---,0.00,VWS V14.01,2013-03-19 11:23:00,
2013-03-19 07:28:00,34.5,32.4,29.80,ENE,69,0.0,0.0,92,0.00,,---,0.00,VWS V14.01,2013-03-19 11:28:00,
2013-03-19 07:33:00,34.9,32.8,29.80,ENE,69,0.0,0.0,92,0.00,,---,0.00,VWS V14.01,2013-03-19 11:33:00,
2013-03-19 07:39:00,34.9,32.8,29.80,ENE,69,0.0,0.0,92,0.00,,---,0.00,VWS V14.01,2013-03-19 11:39:00,
2013-03-19 07:44:00,34.7,32.6,29.80,ENE,69,0.0,0.0,92,0.00,,---,0.00,VWS V14.01,2013-03-19 11:44:00,
2013-03-19 07:49:00,34.7,32.6,29.80,ENE,69,0.0,0.0,92,0.00,,---,0.00,VWS V14.01,2013-03-19 11:49:00,
2013-03-19 07:54:00,34.7,32.6,29.80,North,353,0.0,0.0,92,0.00,,---,0.00,VWS V14.01,2013-03-19 11:54:00,
2013-03-19 07:59:00,34.9,32.8,29.80,NNE,29,0.0,0.0,92,0.00,,---,0.00,VWS V14.01,2013-03-19 11:59:00,
2013-03-19 08:04:00,34.9,32.8,29.80,East,85,2.7,2.7,92,0.00,,---,0.00,VWS V14.01,2013-03-19 12:04:00,
2013-03-19 08:09:00,34.9,32.8,29.80,NNE,15,0.0,2.2,92,0.00,,---,0.00,VWS V14.01,2013-03-19 12:09:00,
2013-03-19 08:14:00,35.1,33.2,29.80,South,186,2.2,2.2,93,0.00,,---,0.00,VWS V14.01,2013-03-19 12:14:00,
2013-03-19 08:19:00,35.2,33.4,29.80,WSW,240,0.0,0.0,93,0.00,,---,0.00,VWS V14.01,2013-03-19 12:19:00,
2013-03-19 08:24:00,35.4,33.6,29.80,West,272,0.0,0.0,93,0.00,,---,0.00,VWS V14.01,2013-03-19 12:24:00,
2013-03-19 08:29:00,35.1,33.2,29.80,ENE,60,0.0,0.0,93,0.00,,---,0.00,VWS V14.01,2013-03-19 12:29:00,
2013-03-19 08:34:00,34.9,32.8,29.80,South,187,2.7,2.7,92,0.00,,---,0.00,VWS V14.01,2013-03-19 12:34:00,
2013-03-19 08:39:00,34.7,32.6,29.80,WSW,247,2.7,4.0,92,0.00,,---,0.00,VWS V14.01,2013-03-19 12:39:00,
2013-03-19 08:44:00,34.9,32.2,29.83,SSW,204,2.2,2.7,90,0.00,,---,0.00,VWS V14.01,2013-03-19 12:44:00,
2013-03-19 08:49:00,34.9,31.1,29.83,SW,218,3.1,5.4,86,0.00,,---,0.00,VWS V14.01,2013-03-19 12:49:00,
2013-03-19 08:55:00,35.1,29.2,29.83,South,184,0.0,2.7,79,0.00,,---,0.00,VWS V14.01,2013-03-19 12:55:00,
2013-03-19 09:00:00,34.9,28.1,29.83,SW,220,5.4,5.4,76,0.00,,---,0.00,VWS V14.01,2013-03-19 13:00:00,
2013-03-19 09:05:00,34.9,25.8,29.83,SW,214,3.6,5.8,69,0.00,,---,0.00,VWS V14.01,2013-03-19 13:05:00,
2013-03-19 09:10:00,35.1,21.8,29.83,SW,229,10.1,10.1,58,0.00,,---,0.00,VWS V14.01,2013-03-19 13:10:00,
2013-03-19 09:15:00,35.1,21.0,29.83,SSW,213,6.3,7.2,56,0.00,,---,0.00,VWS V14.01,2013-03-19 13:15:00,
2013-03-19 09:20:00,35.4,19.1,29.83,SSW,200,6.3,10.1,51,0.00,,---,0.00,VWS V14.01,2013-03-19 13:20:00,
2013-03-19 09:25:00,35.6,18.3,29.83,SW,222,7.6,8.7,49,0.00,,---,0.00,VWS V14.01,2013-03-19 13:25:00,
2013-03-19 09:30:00,35.4,17.7,29.80,SW,225,7.6,8.1,48,0.00,,---,0.00,VWS V14.01,2013-03-19 13:30:00,
2013-03-19 09:35:00,35.6,16.4,29.80,SSW,198,4.0,8.3,45,0.00,,---,0.00,VWS V14.01,2013-03-19 13:35:00,
2013-03-19 09:40:00,35.8,16.5,29.80,SSW,195,2.7,8.7,45,0.00,,---,0.00,VWS V14.01,2013-03-19 13:40:00,
2013-03-19 09:45:00,35.6,16.9,29.83,WSW,237,6.3,12.3,46,0.00,,---,0.00,VWS V14.01,2013-03-19 13:45:00,
2013-03-19 09:50:00,35.6,17.9,29.83,SW,225,8.1,8.3,48,0.00,,---,0.00,VWS V14.01,2013-03-19 13:50:00,
2013-03-19 09:55:00,35.8,17.0,29.83,South,191,9.2,10.5,46,0.00,,---,0.00,VWS V14.01,2013-03-19 13:55:00,
2013-03-19 10:00:00,36.1,16.4,29.83,SSW,198,5.8,5.8,44,0.00,,---,0.00,VWS V14.01,2013-03-19 14:00:00,
2013-03-19 10:05:00,36.3,16.0,29.83,SW,217,4.0,5.4,43,0.00,,---,0.00,VWS V14.01,2013-03-19 14:05:00,
2013-03-19 10:10:00,36.5,16.7,29.83,South,185,0.0,3.6,44,0.00,,---,0.00,VWS V14.01,2013-03-19 14:10:00,
2013-03-19 10:15:00,36.7,16.3,29.80,SW,230,6.3,7.2,43,0.00,,---,0.00,VWS V14.01,2013-03-19 14:15:00,
2013-03-19 10:20:00,37.0,16.6,29.80,SSE,168,8.7,8.7,43,0.00,,---,0.00,VWS V14.01,2013-03-19 14:20:00,
2013-03-19 10:25:00,37.2,16.3,29.80,SW,214,5.4,6.3,42,0.00,,---,0.00,VWS V14.01,2013-03-19 14:25:00,
2013-03-19 10:30:00,37.4,17.0,29.80,SW,224,8.3,8.3,43,0.00,,---,0.00,VWS V14.01,2013-03-19 14:30:00,
2013-03-19 10:36:00,37.4,16.4,29.80,WSW,244,4.0,6.3,42,0.00,,---,0.00,VWS V14.01,2013-03-19 14:36:00,
2013-03-19 10:41:00,37.6,16.6,29.80,SW,223,5.8,6.3,42,0.00,,---,0.00,VWS V14.01,2013-03-19 14:41:00,
2013-03-19 10:46:00,37.9,16.4,29.80,SW,233,5.4,8.7,41,0.00,,---,0.00,VWS V14.01,2013-03-19 14:46:00,
2013-03-19 10:51:00,38.1,16.5,29.80,South,186,5.4,5.4,41,0.00,,---,0.00,VWS V14.01,2013-03-19 14:51:00,
2013-03-19 10:56:00,38.1,16.5,29.80,West,277,4.9,4.9,41,0.00,,---,0.00,VWS V14.01,2013-03-19 14:56:00,
2013-03-19 11:01:00,38.3,16.7,29.80,West,265,5.8,5.8,41,0.00,,---,0.00,VWS V14.01,2013-03-19 15:01:00,
2013-03-19 11:06:00,38.5,16.8,29.80,SW,215,7.2,7.2,41,0.00,,---,0.00,VWS V14.01,2013-03-19 15:06:00,
2013-03-19 11:11:00,39.0,16.8,29.80,SW,233,4.9,6.3,40,0.04,,---,0.04,VWS V14.01,2013-03-19 15:11:00,
2013-03-19 11:16:00,39.4,17.1,29.80,WSW,240,6.3,6.3,40,0.04,,---,0.04,VWS V14.01,2013-03-19 15:16:00,
2013-03-19 11:21:00,40.1,17.1,29.80,SW,221,7.6,10.1,39,0.04,,---,0.04,VWS V14.01,2013-03-19 15:21:00,
2013-03-19 11:27:00,40.5,17.5,29.80,West,271,4.0,11.0,39,0.08,,---,0.08,VWS V14.01,2013-03-19 15:27:00,
2013-03-19 11:32:00,40.8,18.4,29.80,WSW,237,4.0,8.3,40,0.08,,---,0.08,VWS V14.01,2013-03-19 15:32:00,
2013-03-19 11:37:00,41.2,18.1,29.80,SW,224,6.3,6.3,39,0.08,,---,0.08,VWS V14.01,2013-03-19 15:37:00,
2013-03-19 11:42:00,41.5,17.8,29.80,SSW,209,6.3,7.2,38,0.12,,---,0.12,VWS V14.01,2013-03-19 15:42:00,
2013-03-19 11:47:00,41.7,17.4,29.80,WSW,251,4.0,5.8,37,0.12,,---,0.12,VWS V14.01,2013-03-19 15:47:00,
2013-03-19 11:52:00,42.1,16.4,29.80,West,276,10.1,10.5,35,0.16,,---,0.16,VWS V14.01,2013-03-19 15:52:00,
2013-03-19 11:57:00,42.3,16.6,29.80,SSW,198,8.7,11.0,35,0.16,,---,0.16,VWS V14.01,2013-03-19 15:57:00,
2013-03-19 12:02:00,42.4,16.1,29.80,West,264,7.6,11.0,34,0.16,,---,0.16,VWS V14.01,2013-03-19 16:02:00,
2013-03-19 12:07:00,42.8,15.7,29.80,SSW,197,8.1,8.1,33,0.20,,---,0.20,VWS V14.01,2013-03-19 16:07:00,
2013-03-19 12:12:00,43.5,15.6,29.80,West,271,11.0,11.0,32,0.16,,---,0.20,VWS V14.01,2013-03-19 16:12:00,
2013-03-19 12:17:00,44.1,15.4,29.80,SW,214,6.3,11.0,31,0.16,,---,0.20,VWS V14.01,2013-03-19 16:17:00,
2013-03-19 12:22:00,44.4,15.7,29.80,SSW,212,5.4,6.3,31,0.16,,---,0.20,VWS V14.01,2013-03-19 16:22:00,
2013-03-19 12:27:00,45.1,17.1,29.77,South,188,5.4,5.8,32,0.16,,---,0.24,VWS V14.01,2013-03-19 16:27:00,
2013-03-19 12:32:00,45.3,15.7,29.77,SE,143,2.7,4.0,30,0.16,,---,0.24,VWS V14.01,2013-03-19 16:32:00,
2013-03-19 12:37:00,45.7,15.3,29.77,SW,228,6.3,8.1,29,0.16,,---,0.24,VWS V14.01,2013-03-19 16:37:00,
2013-03-19 12:42:00,45.7,15.3,29.80,West,276,9.6,9.6,29,0.12,,---,0.24,VWS V14.01,2013-03-19 16:42:00,
2013-03-19 12:47:00,46.2,15.7,29.80,SW,227,12.8,12.8,29,0.12,,---,0.24,VWS V14.01,2013-03-19 16:47:00,
2013-03-19 12:52:00,46.2,15.7,29.80,West,268,6.3,10.5,29,0.08,,---,0.24,VWS V14.01,2013-03-19 16:52:00,
2013-03-19 12:57:00,46.4,15.1,29.77,SSW,208,8.3,8.3,28,0.12,,---,0.28,VWS V14.01,2013-03-19 16:57:00,
2013-03-19 13:03:00,46.8,15.4,29.77,South,171,5.4,10.1,28,0.12,,---,0.28,VWS V14.01,2013-03-19 17:03:00,
2013-03-19 13:08:00,47.1,14.9,29.77,SSW,201,5.4,7.6,27,0.08,,---,0.28,VWS V14.01,2013-03-19 17:08:00,
2013-03-19 13:13:00,47.5,16.0,29.77,South,183,5.8,7.6,28,0.08,,---,0.28,VWS V14.01,2013-03-19 17:13:00,
2013-03-19 13:18:00,47.8,16.3,29.77,SSW,212,5.4,5.8,28,0.08,,---,0.28,VWS V14.01,2013-03-19 17:18:00,
2013-03-19 13:23:00,48.2,15.8,29.77,SSW,193,8.1,8.1,27,0.08,,---,0.28,VWS V14.01,2013-03-19 17:23:00,
2013-03-19 13:28:00,48.4,16.0,29.77,SSW,202,5.4,8.3,27,0.04,,---,0.28,VWS V14.01,2013-03-19 17:28:00,
2013-03-19 13:33:00,48.4,16.0,29.77,SW,232,8.1,11.0,27,0.04,,---,0.28,VWS V14.01,2013-03-19 17:33:00,
2013-03-19 13:38:00,48.4,15.1,29.77,NNW,331,4.0,15.4,26,0.04,,---,0.28,VWS V14.01,2013-03-19 17:38:00,
2013-03-19 13:43:00,48.6,16.1,29.74,SSW,204,8.7,11.0,27,0.04,,---,0.28,VWS V14.01,2013-03-19 17:43:00,
2013-03-19 13:48:00,48.7,16.3,29.74,West,267,8.1,8.1,27,0.04,,---,0.28,VWS V14.01,2013-03-19 17:48:00,
2013-03-19 13:53:00,49.3,15.9,29.74,WSW,237,8.3,11.0,26,0.04,,---,0.28,VWS V14.01,2013-03-19 17:53:00,
2013-03-19 13:58:00,49.5,16.0,29.74,SW,214,5.4,5.8,26,0.00,,---,0.28,VWS V14.01,2013-03-19 17:58:00,
2013-03-19 14:03:00,49.8,14.5,29.74,WNW,300,7.6,10.1,24,0.00,,---,0.28,VWS V14.01,2013-03-19 18:03:00,
2013-03-19 14:09:00,49.8,14.5,29.74,WSW,256,10.5,16.3,24,0.00,,---,0.28,VWS V14.01,2013-03-19 18:09:00,
2013-03-19 14:14:00,49.8,16.3,29.71,SSW,206,13.2,13.2,26,0.00,,---,0.28,VWS V14.01,2013-03-19 18:14:00,
2013-03-19 14:19:00,50.0,14.6,29.71,SW,229,8.1,11.9,24,0.00,,---,0.28,VWS V14.01,2013-03-19 18:19:00,
2013-03-19 14:24:00,50.2,14.8,29.71,SSW,212,5.4,5.4,24,0.00,,---,0.28,VWS V14.01,2013-03-19 18:24:00,
2013-03-19 14:29:00,50.0,14.6,29.74,WSW,239,3.6,11.0,24,0.00,,---,0.28,VWS V14.01,2013-03-19 18:29:00,
2013-03-19 14:34:00,50.5,15.1,29.74,SW,214,6.3,6.3,24,0.00,,---,0.28,VWS V14.01,2013-03-19 18:34:00,
2013-03-19 14:39:00,50.5,12.1,29.74,SW,219,6.7,10.5,21,0.00,,---,0.28,VWS V14.01,2013-03-19 18:39:00,
2013-03-19 14:44:00,50.7,15.3,29.74,SSW,211,8.1,8.7,24,0.00,,---,0.28,VWS V14.01,2013-03-19 18:44:00,
2013-03-19 14:49:00,51.4,12.8,29.74,South,179,8.1,8.1,21,0.00,,---,0.28,VWS V14.01,2013-03-19 18:49:00,
2013-03-19 14:55:00,51.3,12.7,29.74,SW,232,3.6,12.8,21,0.00,,---,0.28,VWS V14.01,2013-03-19 18:55:00,
2013-03-19 15:00:00,51.6,13.0,29.74,SE,146,3.1,6.3,21,0.00,,---,0.28,VWS V14.01,2013-03-19 19:00:00,
2013-03-19 15:05:00,51.3,12.7,29.74,SW,217,15.4,15.4,21,0.00,,---,0.28,VWS V14.01,2013-03-19 19:05:00,
2013-03-19 15:10:00,51.1,12.5,29.74,South,172,17.9,17.9,21,0.00,,---,0.28,VWS V14.01,2013-03-19 19:10:00,
2013-03-19 15:15:00,50.5,12.1,29.77,SW,220,7.6,14.5,21,0.00,,---,0.28,VWS V14.01,2013-03-19 19:15:00,
2013-03-19 15:20:00,50.7,10.0,29.77,WNW,298,14.5,14.5,19,0.00,,---,0.28,VWS V14.01,2013-03-19 19:20:00,
2013-03-19 15:25:00,50.7,12.2,29.77,WSW,247,7.6,19.2,21,0.00,,---,0.28,VWS V14.01,2013-03-19 19:25:00,
2013-03-19 15:30:00,50.9,12.4,29.77,WSW,250,6.3,6.3,21,0.00,,---,0.28,VWS V14.01,2013-03-19 19:30:00,
2013-03-19 15:35:00,51.1,12.5,29.77,SW,230,8.1,8.7,21,0.00,,---,0.28,VWS V14.01,2013-03-19 19:35:00,
2013-03-19 15:40:00,51.1,10.3,29.77,West,271,7.6,8.1,19,0.00,,---,0.28,VWS V14.01,2013-03-19 19:40:00,
2013-03-19 15:45:00,51.3,12.7,29.74,SW,227,7.6,7.6,21,0.00,,---,0.28,VWS V14.01,2013-03-19 19:45:00,
2013-03-19 15:50:00,51.8,13.1,29.74,SW,235,12.8,12.8,21,0.00,,---,0.28,VWS V14.01,2013-03-19 19:50:00,
2013-03-19 15:55:00,51.4,10.6,29.74,SW,220,8.1,8.7,19,0.00,,---,0.28,VWS V14.01,2013-03-19 19:55:00,
2013-03-19 16:00:00,51.3,10.4,29.74,SW,219,17.4,17.4,19,0.00,,---,0.28,VWS V14.01,2013-03-19 20:00:00,
2013-03-19 16:05:00,51.1,10.3,29.74,SW,233,15.0,17.9,19,0.00,,---,0.28,VWS V14.01,2013-03-19 20:05:00,
2013-03-19 16:10:00,51.1,10.3,29.74,SSW,200,17.0,17.0,19,0.00,,---,0.28,VWS V14.01,2013-03-19 20:10:00,
2013-03-19 16:15:00,50.9,10.1,29.77,SSE,160,6.3,10.5,19,0.00,,---,0.28,VWS V14.01,2013-03-19 20:15:00,
2013-03-19 16:20:00,50.9,10.1,29.77,South,190,10.5,12.3,19,0.00,,---,0.28,VWS V14.01,2013-03-19 20:20:00,
2013-03-19 16:25:00,50.7,10.0,29.77,South,191,3.1,13.2,19,0.00,,---,0.28,VWS V14.01,2013-03-19 20:25:00,
2013-03-19 16:31:00,50.5,9.8,29.77,West,262,12.8,17.0,19,0.00,,---,0.28,VWS V14.01,2013-03-19 20:31:00,
2013-03-19 16:36:00,50.7,10.0,29.77,South,188,9.6,11.0,19,0.00,,---,0.28,VWS V14.01,2013-03-19 20:36:00,
2013-03-19 16:41:00,50.7,10.0,29.77,SSE,156,8.7,8.7,19,0.00,,---,0.28,VWS V14.01,2013-03-19 20:41:00,
2013-03-19 16:46:00,50.9,10.1,29.77,SSW,203,8.7,8.7,19,0.00,,---,0.28,VWS V14.01,2013-03-19 20:46:00,
2013-03-19 16:51:00,50.5,9.8,29.77,SW,222,7.6,8.3,19,0.00,,---,0.28,VWS V14.01,2013-03-19 20:51:00,
2013-03-19 16:56:00,51.1,10.3,29.77,SW,218,8.3,11.0,19,0.00,,---,0.28,VWS V14.01,2013-03-19 20:56:00,
2013-03-19 17:01:00,50.5,9.8,29.77,SW,234,8.7,10.5,19,0.00,,---,0.28,VWS V14.01,2013-03-19 21:01:00,
2013-03-19 17:06:00,50.7,10.0,29.77,SE,144,3.1,16.8,19,0.00,,---,0.28,VWS V14.01,2013-03-19 21:06:00,
2013-03-19 17:11:00,50.7,10.0,29.77,SSE,154,0.0,4.9,19,0.00,,---,0.28,VWS V14.01,2013-03-19 21:11:00,
2013-03-19 17:16:00,50.9,10.1,29.77,SSW,198,10.5,15.0,19,0.00,,---,0.28,VWS V14.01,2013-03-19 21:16:00,
2013-03-19 17:22:00,50.7,10.0,29.77,SSW,199,8.7,12.8,19,0.00,,---,0.28,VWS V14.01,2013-03-19 21:22:00,
2013-03-19 17:27:00,50.5,9.8,29.77,West,261,21.5,21.5,19,0.00,,---,0.28,VWS V14.01,2013-03-19 21:27:00,
2013-03-19 17:32:00,50.4,9.7,29.77,SSW,213,8.7,12.8,19,0.00,,---,0.28,VWS V14.01,2013-03-19 21:32:00,
2013-03-19 17:37:00,50.0,5.6,29.77,SW,229,10.5,21.9,16,0.00,,---,0.28,VWS V14.01,2013-03-19 21:37:00,
2013-03-19 17:42:00,49.6,9.1,29.80,SW,234,3.6,4.9,19,0.00,,---,0.28,VWS V14.01,2013-03-19 21:42:00,
2013-03-19 17:47:00,49.6,9.1,29.80,SSE,154,8.1,11.0,19,0.00,,---,0.28,VWS V14.01,2013-03-19 21:47:00,
2013-03-19 17:52:00,49.1,4.9,29.80,SE,146,7.6,7.6,16,0.00,,---,0.28,VWS V14.01,2013-03-19 21:52:00,
2013-03-19 17:57:00,49.1,4.9,29.80,SW,223,12.8,12.8,16,0.00,,---,0.28,VWS V14.01,2013-03-19 21:57:00,
2013-03-19 18:02:00,48.9,4.7,29.80,West,270,3.6,5.8,16,0.00,,---,0.28,VWS V14.01,2013-03-19 22:02:00,
2013-03-19 18:07:00,48.4,4.3,29.80,SW,235,5.8,5.8,16,0.00,,---,0.28,VWS V14.01,2013-03-19 22:07:00,
2013-03-19 18:12:00,48.4,4.3,29.80,South,176,6.3,7.6,16,0.00,,---,0.28,VWS V14.01,2013-03-19 22:12:00,
2013-03-19 18:17:00,48.4,4.3,29.80,SSE,163,5.4,11.0,16,0.00,,---,0.28,VWS V14.01,2013-03-19 22:17:00,
2013-03-19 18:22:00,48.2,4.1,29.80,South,189,11.9,13.2,16,0.00,,---,0.28,VWS V14.01,2013-03-19 22:22:00,
2013-03-19 18:27:00,48.0,5.3,29.80,WSW,256,3.1,5.8,17,0.00,,---,0.28,VWS V14.01,2013-03-19 22:27:00,
2013-03-19 18:32:00,47.8,5.2,29.80,WSW,237,8.1,8.1,17,0.00,,---,0.28,VWS V14.01,2013-03-19 22:32:00,
2013-03-19 18:37:00,47.3,4.7,29.80,SSE,149,13.6,13.6,17,0.00,,---,0.28,VWS V14.01,2013-03-19 22:37:00,
2013-03-19 18:42:00,46.8,4.3,29.83,South,190,5.4,5.4,17,0.00,,---,0.28,VWS V14.01,2013-03-19 22:42:00,
2013-03-19 18:48:00,46.2,3.8,29.83,SSE,168,3.6,5.4,17,0.00,,---,0.28,VWS V14.01,2013-03-19 22:48:00,
2013-03-19 18:53:00,45.7,3.4,29.83,SSW,213,13.2,13.2,17,0.00,,---,0.28,VWS V14.01,2013-03-19 22:53:00,
2013-03-19 18:58:00,45.0,2.8,29.83,SSE,154,11.9,11.9,17,0.00,,---,0.28,VWS V14.01,2013-03-19 22:58:00,
2013-03-19 19:03:00,44.4,3.6,29.83,South,186,7.6,8.7,18,0.00,,---,0.28,VWS V14.01,2013-03-19 23:03:00,
2013-03-19 19:08:00,43.9,3.1,29.83,ESE,122,2.7,3.1,18,0.00,,---,0.28,VWS V14.01,2013-03-19 23:08:00,
2013-03-19 19:13:00,43.5,2.8,29.83,East,90,3.1,6.3,18,0.00,,---,0.28,VWS V14.01,2013-03-19 23:13:00,
2013-03-19 19:18:00,43.3,2.7,29.83,SSW,212,5.4,11.0,18,0.00,,---,0.28,VWS V14.01,2013-03-19 23:18:00,
2013-03-19 19:23:00,43.0,2.4,29.83,SSW,202,5.8,5.8,18,0.00,,---,0.28,VWS V14.01,2013-03-19 23:23:00,
2013-03-19 19:28:00,42.6,2.1,29.83,SSW,203,0.0,0.0,18,0.00,,---,0.28,VWS V14.01,2013-03-19 23:28:00,
2013-03-19 19:33:00,42.3,1.8,29.83,NNW,329,6.3,6.3,18,0.00,,---,0.28,VWS V14.01,2013-03-19 23:33:00,
2013-03-19 19:38:00,42.1,1.6,29.83,SW,217,4.9,4.9,18,0.00,,---,0.28,VWS V14.01,2013-03-19 23:38:00,
2013-03-19 19:43:00,41.5,1.2,29.86,WSW,254,5.4,8.3,18,0.00,,---,0.28,VWS V14.01,2013-03-19 23:43:00,
2013-03-19 19:48:00,41.4,1.0,29.86,SSE,163,8.3,12.3,18,0.00,,---,0.28,VWS V14.01,2013-03-19 23:48:00,
2013-03-19 19:53:00,41.2,0.9,29.86,SSW,205,6.3,8.1,18,0.00,,---,0.28,VWS V14.01,2013-03-19 23:53:00,
2013-03-19 19:58:00,41.2,0.9,29.86,SW,215,6.3,10.1,18,0.00,,---,0.28,VWS V14.01,2013-03-19 23:58:00,
2013-03-19 20:04:00,41.0,0.8,29.86,ESE,123,3.1,8.1,18,0.00,,---,0.28,VWS V14.01,2013-03-20 00:04:00,
2013-03-19 20:09:00,40.6,0.5,29.86,SSW,209,5.8,6.3,18,0.00,,---,0.28,VWS V14.01,2013-03-20 00:09:00,
2013-03-19 20:14:00,40.1,0.0,29.86,WSW,244,5.8,10.5,18,0.00,,---,0.28,VWS V14.01,2013-03-20 00:14:00,
2013-03-19 20:19:00,40.1,0.0,29.86,West,259,3.1,4.9,18,0.00,,---,0.28,VWS V14.01,2013-03-20 00:19:00,
2013-03-19 20:24:00,39.7,-0.3,29.86,SSW,206,4.0,7.2,18,0.00,,---,0.28,VWS V14.01,2013-03-20 00:24:00,
2013-03-19 20:29:00,39.6,-0.4,29.86,SSW,195,3.6,10.5,18,0.00,,---,0.28,VWS V14.01,2013-03-20 00:29:00,
2013-03-19 20:34:00,39.6,-0.4,29.86,WSW,247,7.6,12.3,18,0.00,,---,0.28,VWS V14.01,2013-03-20 00:34:00,
2013-03-19 20:39:00,39.4,-0.6,29.86,West,259,0.0,3.6,18,0.00,,---,0.28,VWS V14.01,2013-03-20 00:39:00,
2013-03-19 20:44:00,38.7,0.0,29.86,North,0,0.0,2.2,19,0.00,,---,0.28,VWS V14.01,2013-03-20 00:44:00,
2013-03-19 20:49:00,38.7,0.0,29.86,SW,220,4.5,4.5,19,0.00,,---,0.28,VWS V14.01,2013-03-20 00:49:00,
2013-03-19 20:54:00,38.5,-0.2,29.86,South,175,3.1,4.0,19,0.00,,---,0.28,VWS V14.01,2013-03-20 00:54:00,
2013-03-19 20:59:00,38.1,-0.5,29.89,SSE,149,2.7,2.7,19,0.00,,---,0.28,VWS V14.01,2013-03-20 00:59:00,
2013-03-19 21:04:00,37.6,-0.9,29.89,SSW,193,0.0,0.0,19,0.00,,---,0.28,VWS V14.01,2013-03-20 01:04:00,
2013-03-19 21:09:00,37.0,-1.4,29.89,NNW,340,2.2,2.2,19,0.00,,---,0.28,VWS V14.01,2013-03-20 01:09:00,
2013-03-19 21:14:00,36.9,-1.5,29.89,SW,216,10.5,10.5,19,0.00,,---,0.28,VWS V14.01,2013-03-20 01:14:00,
2013-03-19 21:19:00,37.4,-1.1,29.89,SW,225,8.1,8.7,19,0.00,,---,0.28,VWS V14.01,2013-03-20 01:19:00,
2013-03-19 21:24:00,37.8,-0.8,29.89,SSW,197,0.0,0.0,19,0.00,,---,0.28,VWS V14.01,2013-03-20 01:24:00,
2013-03-19 21:29:00,37.8,-0.8,29.89,SW,217,8.7,10.5,19,0.00,,---,0.28,VWS V14.01,2013-03-20 01:29:00,
2013-03-19 21:34:00,37.9,-0.6,29.89,SSW,209,5.8,5.8,19,0.00,,---,0.28,VWS V14.01,2013-03-20 01:34:00,
2013-03-19 21:39:00,37.8,-0.8,29.89,SSW,207,4.0,5.8,19,0.00,,---,0.28,VWS V14.01,2013-03-20 01:39:00,
2013-03-19 21:44:00,37.8,-0.8,29.89,SSW,209,4.0,8.1,19,0.00,,---,0.28,VWS V14.01,2013-03-20 01:44:00,
2013-03-19 21:49:00,37.6,-0.9,29.89,WSW,249,0.0,2.7,19,0.00,,---,0.28,VWS V14.01,2013-03-20 01:49:00,
2013-03-19 21:54:00,37.2,-1.2,29.89,WNW,291,3.1,3.1,19,0.00,,---,0.28,VWS V14.01,2013-03-20 01:54:00,
2013-03-19 21:59:00,36.9,-1.5,29.89,South,172,7.6,7.6,19,0.00,,---,0.28,VWS V14.01,2013-03-20 01:59:00,
2013-03-19 22:05:00,37.0,-1.4,29.89,SW,233,2.7,4.5,19,0.00,,---,0.28,VWS V14.01,2013-03-20 02:05:00,
2013-03-19 22:18:00,36.7,-1.7,29.89,SW,231,4.9,4.9,19,0.00,,---,0.28,VWS V14.01,2013-03-20 02:18:00,
2013-03-19 22:23:00,36.7,-1.7,29.89,West,270,5.4,10.5,19,0.00,,---,0.28,VWS V14.01,2013-03-20 02:23:00,
2013-03-19 22:28:00,36.5,-1.8,29.89,SW,227,5.4,8.1,19,0.00,,---,0.28,VWS V14.01,2013-03-20 02:28:00,
2013-03-19 22:33:00,36.7,-1.7,29.89,WSW,249,3.6,4.0,19,0.00,,---,0.28,VWS V14.01,2013-03-20 02:33:00,
2013-03-19 22:38:00,36.7,-1.7,29.89,SW,219,14.5,14.5,19,0.00,,---,0.28,VWS V14.01,2013-03-20 02:38:00,
2013-03-19 23:54:00,34.3,-2.6,29.89,SSE,159,11.4,11.4,20,0.00,,---,0.28,VWS V14.01,2013-03-20 03:54:00,
2013-03-19 23:59:00,34.7,-2.3,29.89,SW,214,3.1,3.1,20,0.00,,---,0.28,VWS V14.01,2013-03-20 03:59:00,